Time;durP1;ratioP1;P1;durP2;ratioP2;P2;SDS_P1;SDS_P2;PMS_P1;PMS_P2;Temp;Humidity;BMP_temperature;BMP_pressure;BME280_temperature;BME280_humidity;BME280_pressure;Samples;Min_cycle;Max_cycle;Signal;HPM_P1;HPM_P2
2021/06/21 00:01:11;;;;;;;3.03;1.70;;;16.10;99.90;;;;;;6187819;23;20000;-77
2021/06/21 00:03:37;;;;;;;1.60;1.40;;;16.10;99.90;;;;;;6213925;23;19997;-77
2021/06/21 00:06:03;;;;;;;4.15;2.67;;;16.10;99.90;;;;;;6214146;23;20044;-77
2021/06/21 00:08:28;;;;;;;7.68;2.13;;;16.20;99.90;;;;;;6214440;23;19993;-77
2021/06/21 00:10:54;;;;;;;3.25;2.40;;;16.20;99.90;;;;;;6214400;23;20005;-77
2021/06/21 00:13:20;;;;;;;3.95;1.45;;;16.10;99.90;;;;;;6214002;23;19993;-77
2021/06/21 00:15:46;;;;;;;3.38;1.90;;;16.00;99.90;;;;;;6214464;23;20003;-77
2021/06/21 00:18:14;;;;;;;3.20;1.40;;;15.90;99.90;;;;;;6214020;23;20331;-77
2021/06/21 00:20:41;;;;;;;5.00;2.08;;;15.40;99.90;;;;;;6214336;23;19997;-77
2021/06/21 00:23:07;;;;;;;2.38;1.70;;;15.20;99.90;;;;;;6214139;23;19996;-77
2021/06/21 00:25:33;;;;;;;5.35;1.98;;;15.50;99.90;;;;;;6187896;23;20012;-77
2021/06/21 00:27:59;;;;;;;1.55;1.15;;;15.80;99.90;;;;;;6213829;23;20035;-77
2021/06/21 00:30:24;;;;;;;2.00;1.77;;;15.90;99.90;;;;;;6214025;23;20024;-77
2021/06/21 00:32:51;;;;;;;5.15;1.58;;;15.90;99.90;;;;;;6213559;23;20115;-77
2021/06/21 00:35:18;;;;;;;4.97;1.77;;;15.90;99.90;;;;;;6214229;23;20009;-77
2021/06/21 00:37:44;;;;;;;3.55;1.60;;;15.80;99.90;;;;;;6187551;23;20091;-77
2021/06/21 00:40:11;;;;;;;6.45;1.80;;;15.70;99.90;;;;;;6214702;23;19993;-77
2021/06/21 00:42:41;;;;;;;3.58;1.85;;;15.40;99.90;;;;;;6214396;23;20004;-77
2021/06/21 00:45:08;;;;;;;4.55;2.10;;;15.30;99.90;;;;;;6187922;23;20451;-77
2021/06/21 00:47:33;;;;;;;3.00;1.90;;;15.10;99.90;;;;;;6188969;23;20012;-77
2021/06/21 00:49:59;;;;;;;7.43;2.20;;;15.00;99.90;;;;;;6216330;23;20058;-77
2021/06/21 00:52:25;;;;;;;2.83;1.52;;;15.20;99.90;;;;;;6216221;23;20028;-77
2021/06/21 00:54:59;;;;;;;5.93;2.20;;;15.30;99.90;;;;;;6215768;23;20011;-77
2021/06/21 00:57:32;;;;;;;6.43;1.58;;;15.30;99.90;;;;;;6215764;23;20020;-77
2021/06/21 01:00:00;;;;;;;3.65;1.83;;;15.40;99.90;;;;;;6215382;23;19997;-77
2021/06/21 01:02:27;;;;;;;5.82;2.40;;;15.10;99.90;;;;;;6216069;23;19996;-77
2021/06/21 01:04:54;;;;;;;5.85;2.00;;;14.90;99.90;;;;;;6215668;23;19997;-77
2021/06/21 01:07:20;;;;;;;3.78;2.10;;;14.90;99.90;;;;;;6216361;23;19997;-77
2021/06/21 01:09:47;;;;;;;7.30;2.03;;;14.90;99.90;;;;;;6215870;23;20003;-77
2021/06/21 01:12:33;;;;;;;2.13;1.83;;;15.00;99.90;;;;;;6189262;23;20524;-77
2021/06/21 01:15:05;;;;;;;5.47;2.97;;;14.90;99.90;;;;;;6123397;23;20093;-77
2021/06/21 01:17:34;;;;;;;6.60;2.10;;;15.00;99.90;;;;;;6123961;23;20012;-77
2021/06/21 01:20:24;;;;;;;4.45;1.90;;;15.00;99.90;;;;;;6123913;23;20001;-77
2021/06/21 01:23:26;;;;;;;3.58;2.30;;;15.00;99.90;;;;;;6124034;23;20008;-77
2021/06/21 01:26:06;;;;;;;3.13;2.03;;;15.00;99.90;;;;;;6123926;23;20030;-77
2021/06/21 01:29:01;;;;;;;3.38;1.85;;;14.60;99.90;;;;;;6123613;23;20397;-77
2021/06/21 01:31:54;;;;;;;2.33;1.75;;;14.40;99.90;;;;;;6123480;23;20006;-77
2021/06/21 01:34:25;;;;;;;6.75;2.83;;;14.60;99.90;;;;;;6117492;23;20396;-77
2021/06/21 01:36:54;;;;;;;2.03;1.58;;;14.70;99.90;;;;;;6123648;23;20057;-77
2021/06/21 01:39:20;;;;;;;4.25;2.30;;;14.70;99.90;;;;;;6123612;23;20095;-77
2021/06/21 01:41:48;;;;;;;4.53;1.80;;;14.50;99.90;;;;;;6123989;23;19998;-77
2021/06/21 01:44:17;;;;;;;5.78;1.60;;;14.60;99.90;;;;;;6122944;23;20452;-77
2021/06/21 01:46:48;;;;;;;4.63;1.60;;;14.60;99.90;;;;;;6123406;23;20002;-77
2021/06/21 01:49:19;;;;;;;7.07;1.92;;;14.70;99.90;;;;;;6123647;23;20006;-77
2021/06/21 01:51:46;;;;;;;3.05;1.73;;;14.70;99.90;;;;;;6132367;23;20000;-77
2021/06/21 01:54:14;;;;;;;3.13;2.00;;;14.60;99.90;;;;;;6188534;23;20039;-77
2021/06/21 01:56:46;;;;;;;2.65;1.63;;;14.20;99.90;;;;;;6188729;23;20443;-77
2021/06/21 01:59:14;;;;;;;6.07;1.85;;;14.40;99.90;;;;;;6214597;23;20012;-77
2021/06/21 02:01:43;;;;;;;2.28;1.45;;;14.40;99.90;;;;;;6188232;23;20495;-77
2021/06/21 02:04:09;;;;;;;3.33;1.70;;;14.10;99.90;;;;;;6215208;23;20020;-77
2021/06/21 02:06:36;;;;;;;6.40;2.10;;;13.80;99.90;;;;;;6215088;23;20454;-77
2021/06/21 02:09:06;;;;;;;5.18;1.40;;;13.80;99.90;;;;;;6215209;23;20001;-77
2021/06/21 02:11:32;;;;;;;;;;;13.90;99.90;;;;;;6216128;23;20000;-77
2021/06/21 02:13:58;;;;;;;2.78;1.55;;;14.00;99.90;;;;;;6214782;23;19950;-77
2021/06/21 02:16:26;;;;;;;22.77;2.53;;;14.10;99.90;;;;;;6215317;23;20000;-77
2021/06/21 02:18:53;;;;;;;38.53;3.80;;;14.10;99.90;;;;;;6215174;23;20458;-77
2021/06/21 02:21:20;;;;;;;17.15;2.50;;;14.00;99.90;;;;;;6215094;23;19992;-77
2021/06/21 02:23:48;;;;;;;6.47;2.03;;;13.90;99.90;;;;;;6215324;23;19996;-77
2021/06/21 02:26:18;;;;;;;4.88;2.00;;;13.90;99.90;;;;;;6214995;23;19997;-77
2021/06/21 02:28:44;;;;;;;3.23;1.80;;;13.90;99.90;;;;;;6214894;23;19997;-77
2021/06/21 02:31:11;;;;;;;4.38;1.75;;;14.00;99.90;;;;;;6214484;23;19993;-77
2021/06/21 02:33:36;;;;;;;7.30;2.63;;;14.00;99.90;;;;;;6187998;23;20320;-77
2021/06/21 02:36:03;;;;;;;6.93;2.00;;;13.80;99.90;;;;;;6214515;23;20047;-77
2021/06/21 02:38:29;;;;;;;4.60;2.55;;;14.00;99.90;;;;;;6215127;23;20031;-77
2021/06/21 02:40:55;;;;;;;1.70;1.60;;;14.10;99.90;;;;;;6215018;23;20011;-77
2021/06/21 02:43:21;;;;;;;6.43;2.03;;;14.20;99.90;;;;;;6214705;23;20007;-77
2021/06/21 02:45:47;;;;;;;4.28;1.92;;;14.00;99.90;;;;;;6214503;23;20079;-77
2021/06/21 02:48:13;;;;;;;4.10;2.13;;;13.70;99.90;;;;;;6215321;23;20389;-77
2021/06/21 02:50:46;;;;;;;4.40;1.88;;;13.50;99.90;;;;;;6214913;23;20071;-77
2021/06/21 02:53:18;;;;;;;4.38;1.65;;;13.50;99.90;;;;;;6214826;23;20079;-77
2021/06/21 02:55:50;;;;;;;2.58;1.48;;;13.50;99.90;;;;;;6187781;23;20001;-77
2021/06/21 02:58:26;;;;;;;5.35;1.67;;;13.10;99.90;;;;;;6213991;23;19992;-76
2021/06/21 03:00:54;;;;;;;4.00;2.20;;;13.10;99.90;;;;;;6187983;23;20096;-77
2021/06/21 03:03:30;;;;;;;6.13;2.60;;;13.30;99.90;;;;;;6214219;23;19996;-77
2021/06/21 03:05:58;;;;;;;3.42;1.52;;;13.20;99.90;;;;;;6214525;23;19996;-77
2021/06/21 03:08:25;;;;;;;2.22;1.27;;;13.20;99.90;;;;;;6214381;23;20000;-76
2021/06/21 03:10:51;;;;;;;5.53;2.92;;;12.80;99.90;;;;;;6214369;23;20034;-77
2021/06/21 03:13:21;;;;;;;2.78;1.45;;;12.90;99.90;;;;;;6214748;23;19996;-76
2021/06/21 03:15:50;;;;;;;4.40;1.90;;;13.20;99.90;;;;;;6214808;23;20450;-76
2021/06/21 03:18:18;;;;;;;7.18;1.45;;;13.30;99.90;;;;;;6214754;23;19992;-77
2021/06/21 03:20:44;;;;;;;5.63;1.60;;;13.10;99.90;;;;;;6214717;23;19993;-77
2021/06/21 03:23:10;;;;;;;4.45;1.10;;;13.00;99.90;;;;;;6214591;23;20020;-77
2021/06/21 03:25:36;;;;;;;2.67;1.00;;;12.80;99.90;;;;;;6214324;23;20053;-76
2021/06/21 03:28:11;;;;;;;5.45;1.63;;;12.40;99.90;;;;;;6215118;23;20035;-77
2021/06/21 03:30:41;;;;;;;3.78;1.55;;;12.70;99.90;;;;;;6213769;23;20378;-76
2021/06/21 03:33:08;;;;;;;6.35;1.60;;;12.80;99.90;;;;;;6214254;23;20001;-76
2021/06/21 03:35:34;;;;;;;4.53;2.83;;;13.00;99.90;;;;;;6214489;23;20469;-77
2021/06/21 03:38:19;;;;;;;8.30;2.10;;;12.90;99.90;;;;;;6187525;23;20008;-76
2021/06/21 03:40:46;;;;;;;2.25;1.50;;;13.00;99.90;;;;;;6214408;23;19997;-77
2021/06/21 03:43:17;;;;;;;5.18;1.88;;;12.70;99.90;;;;;;6214343;23;20026;-76
2021/06/21 03:45:44;;;;;;;4.07;1.38;;;12.20;99.90;;;;;;6214588;23;20004;-76
2021/06/21 03:48:10;;;;;;;3.47;0.98;;;12.10;99.90;;;;;;6187937;23;20075;-76
2021/06/21 03:50:36;;;;;;;4.82;1.63;;;12.10;99.90;;;;;;6214457;23;20024;-77
2021/06/21 03:53:03;;;;;;;6.43;2.05;;;12.50;99.90;;;;;;6214736;23;20466;-76
2021/06/21 03:55:29;;;;;;;3.25;2.20;;;12.60;99.90;;;;;;6212491;23;20008;-77
2021/06/21 03:57:55;;;;;;;2.78;1.50;;;12.50;99.90;;;;;;6213002;23;19996;-77
2021/06/21 04:00:29;;;;;;;4.93;2.60;;;12.30;99.90;;;;;;6213091;23;20001;-77
2021/06/21 04:02:57;;;;;;;2.40;1.42;;;12.30;99.90;;;;;;6213340;23;20004;-77
2021/06/21 04:05:24;;;;;;;7.35;1.77;;;12.40;99.90;;;;;;6186506;23;20008;-77
2021/06/21 04:07:51;;;;;;;2.75;1.23;;;12.60;99.90;;;;;;6213862;23;19997;-76
2021/06/21 04:10:22;;;;;;;0.98;0.95;;;12.50;99.90;;;;;;6212605;23;20055;-76
2021/06/21 04:12:49;;;;;;;5.13;1.20;;;12.60;99.90;;;;;;6213264;23;20008;-76
2021/06/21 04:15:17;;;;;;;5.13;1.70;;;12.60;99.90;;;;;;6212904;23;19997;-76
2021/06/21 04:17:43;;;;;;;5.43;1.33;;;12.50;99.90;;;;;;6213222;23;20071;-76
2021/06/21 04:20:11;;;;;;;4.63;1.60;;;12.60;99.90;;;;;;6213431;23;19993;-76
2021/06/21 04:22:38;;;;;;;4.35;1.52;;;12.70;99.90;;;;;;6215107;23;20449;-76
2021/06/21 04:25:05;;;;;;;2.35;1.42;;;12.70;99.90;;;;;;6188716;23;20004;-76
2021/06/21 04:27:31;;;;;;;1.92;1.70;;;12.80;99.90;;;;;;6189014;23;20058;-76
2021/06/21 04:29:57;;;;;;;20.60;2.42;;;12.90;99.90;;;;;;6215637;23;20442;-76
2021/06/21 04:32:23;;;;;;;6.15;1.88;;;12.70;99.90;;;;;;6215739;23;20008;-76
2021/06/21 04:34:49;;;;;;;10.20;1.80;;;12.60;99.90;;;;;;6215339;23;20000;-76
2021/06/21 04:37:14;;;;;;;6.43;2.30;;;12.50;99.90;;;;;;6188887;23;20477;-76
2021/06/21 04:39:40;;;;;;;8.25;2.70;;;12.50;99.90;;;;;;6188579;23;20004;-76
2021/06/21 04:42:06;;;;;;;11.18;2.30;;;12.70;99.90;;;;;;6215068;23;19996;-77
2021/06/21 04:44:32;;;;;;;13.95;2.15;;;12.70;99.90;;;;;;6215445;23;20473;-77
2021/06/21 04:46:58;;;;;;;13.23;2.25;;;12.60;99.90;;;;;;6215880;23;20001;-76
2021/06/21 04:49:24;;;;;;;33.08;2.97;;;12.70;99.90;;;;;;6215699;23;20000;-77
2021/06/21 04:51:51;;;;;;;16.42;2.22;;;12.30;99.90;;;;;;6214875;23;19996;-76
2021/06/21 04:54:17;;;;;;;28.40;2.30;;;12.60;99.90;;;;;;6188526;23;20004;-77
2021/06/21 04:56:43;;;;;;;28.20;1.92;;;12.70;99.90;;;;;;6215983;23;19997;-77
2021/06/21 04:59:08;;;;;;;175.25;4.82;;;12.60;99.90;;;;;;6215612;23;20496;-77
2021/06/21 05:01:35;;;;;;;20.52;1.45;;;12.50;99.90;;;;;;6188649;23;20051;-77
2021/06/21 05:04:01;;;;;;;1.52;1.20;;;12.50;99.90;;;;;;6215558;23;19993;-77
2021/06/21 05:06:28;;;;;;;1.30;0.90;;;12.50;99.90;;;;;;6189414;23;20072;-78
2021/06/21 05:08:54;;;;;;;2.28;1.00;;;12.70;99.90;;;;;;6215408;23;19993;-77
2021/06/21 05:11:20;;;;;;;16.13;2.33;;;12.90;99.90;;;;;;6215905;23;19997;-77
2021/06/21 05:13:46;;;;;;;9.85;1.50;;;12.90;99.90;;;;;;6188434;23;20338;-77
2021/06/21 05:16:11;;;;;;;13.70;1.67;;;13.10;99.90;;;;;;6215097;23;20032;-77
2021/06/21 05:18:38;;;;;;;30.17;1.45;;;13.10;99.90;;;;;;6215197;23;20339;-77
2021/06/21 05:21:04;;;;;;;11.02;1.20;;;13.00;99.90;;;;;;6215505;23;19997;-76
2021/06/21 05:23:30;;;;;;;1.67;0.93;;;12.80;99.90;;;;;;6209321;23;19996;-77
2021/06/21 05:25:56;;;;;;;7.97;1.20;;;12.90;99.90;;;;;;6214342;23;20007;-77
2021/06/21 05:28:22;;;;;;;1.08;0.98;;;13.00;99.90;;;;;;6214588;23;20054;-76
2021/06/21 05:30:48;;;;;;;1.83;1.23;;;13.00;99.90;;;;;;6214817;23;20420;-77
2021/06/21 05:33:14;;;;;;;2.65;1.67;;;12.90;99.90;;;;;;6215257;23;19997;-77
2021/06/21 05:35:41;;;;;;;1.45;1.27;;;13.10;99.90;;;;;;6214203;23;19997;-76
2021/06/21 05:38:07;;;;;;;2.25;1.05;;;13.30;99.90;;;;;;6213536;23;20013;-76
2021/06/21 05:40:33;;;;;;;3.15;1.33;;;13.50;99.90;;;;;;6186727;23;20005;-76
2021/06/21 05:42:59;;;;;;;1.63;1.02;;;13.60;99.90;;;;;;6213778;23;20394;-76
2021/06/21 05:45:25;;;;;;;1.33;1.10;;;13.60;99.90;;;;;;6214308;23;19997;-77
2021/06/21 05:47:50;;;;;;;1.40;1.30;;;13.60;99.90;;;;;;6213983;23;20004;-76
2021/06/21 05:50:16;;;;;;;1.98;1.50;;;13.70;99.90;;;;;;6214133;23;20339;-76
2021/06/21 05:52:42;;;;;;;2.53;1.20;;;13.70;99.90;;;;;;6187191;23;20005;-76
2021/06/21 05:55:09;;;;;;;6.13;1.30;;;13.90;99.90;;;;;;6214058;23;20003;-77
2021/06/21 05:57:35;;;;;;;3.78;1.30;;;14.00;99.90;;;;;;6214100;23;19993;-76
2021/06/21 06:00:00;;;;;;;1.75;1.08;;;14.00;99.90;;;;;;6214131;23;20020;-76
2021/06/21 06:02:26;;;;;;;1.77;1.35;;;14.10;99.90;;;;;;6214856;23;20457;-78
2021/06/21 06:04:52;;;;;;;5.45;1.40;;;14.20;99.90;;;;;;6214068;23;20000;-77
2021/06/21 06:07:18;;;;;;;3.75;1.25;;;14.40;99.90;;;;;;6215343;23;19996;-77
2021/06/21 06:09:44;;;;;;;6.13;1.40;;;14.50;99.90;;;;;;6215451;23;20008;-77
2021/06/21 06:12:11;;;;;;;1.25;1.00;;;14.70;99.90;;;;;;6215048;23;20001;-77
2021/06/21 06:14:37;;;;;;;0.95;0.88;;;14.80;99.90;;;;;;6188525;23;20011;-77
2021/06/21 06:17:03;;;;;;;2.33;1.55;;;14.80;99.90;;;;;;6215378;23;20338;-77
2021/06/21 06:19:28;;;;;;;4.82;1.65;;;14.90;99.90;;;;;;6214967;23;19997;-77
2021/06/21 06:21:54;;;;;;;2.88;2.38;;;15.10;99.90;;;;;;6215004;23;19996;-77
2021/06/21 06:24:20;;;;;;;3.45;1.65;;;15.20;99.90;;;;;;6215315;23;20004;-77
2021/06/21 06:26:46;;;;;;;1.75;1.60;;;15.30;99.90;;;;;;6215041;23;19997;-77
2021/06/21 06:29:15;;;;;;;1.52;1.40;;;15.40;99.90;;;;;;6215144;23;20007;-77
2021/06/21 06:31:45;;;;;;;3.80;1.65;;;15.40;99.90;;;;;;6215399;23;20000;-77
2021/06/21 06:34:12;;;;;;;5.53;1.52;;;15.50;99.90;;;;;;6214479;23;20316;-77
2021/06/21 06:36:38;;;;;;;1.77;1.60;;;15.60;99.90;;;;;;6214329;23;20013;-77
2021/06/21 06:39:05;;;;;;;3.58;1.48;;;15.70;99.90;;;;;;6215090;23;20007;-77
2021/06/21 06:41:31;;;;;;;2.67;1.55;;;15.90;99.90;;;;;;6215019;23;20007;-77
2021/06/21 06:43:56;;;;;;;6.65;1.88;;;16.00;99.90;;;;;;6188100;23;20024;-77
2021/06/21 06:46:22;;;;;;;5.00;1.90;;;16.20;99.90;;;;;;6215114;23;20550;-77
2021/06/21 06:48:48;;;;;;;2.53;2.20;;;16.30;99.90;;;;;;6214472;23;20000;-77
2021/06/21 06:51:15;;;;;;;3.50;2.20;;;16.40;99.90;;;;;;6188293;23;20464;-77
2021/06/21 06:53:54;;;;;;;3.25;2.00;;;16.50;99.90;;;;;;6215124;23;19996;-77
2021/06/21 06:59:04;;;;;;;2.45;1.67;;;16.80;99.90;;;;;;6214911;23;20723;-77
2021/06/21 07:01:30;;;;;;;4.13;2.20;;;17.00;99.90;;;;;;6214777;23;20067;-77
2021/06/21 07:03:56;;;;;;;3.40;2.50;;;17.10;99.90;;;;;;6214451;23;20000;-77
2021/06/21 07:06:22;;;;;;;7.07;2.78;;;17.10;99.90;;;;;;6214815;23;19997;-77
2021/06/21 07:08:48;;;;;;;2.72;2.50;;;17.30;99.90;;;;;;6214870;23;20059;-77
2021/06/21 07:11:15;;;;;;;5.30;2.90;;;17.50;99.90;;;;;;6214538;23;19992;-77
2021/06/21 07:13:42;;;;;;;2.75;2.13;;;18.20;99.90;;;;;;6215008;23;20438;-77
2021/06/21 07:16:08;;;;;;;3.22;2.65;;;18.80;99.90;;;;;;6214522;23;20446;-77
2021/06/21 07:18:34;;;;;;;3.92;1.85;;;19.10;99.90;;;;;;6214210;23;20064;-77
2021/06/21 07:21:00;;;;;;;5.55;2.78;;;18.90;99.90;;;;;;6214732;23;20017;-77
2021/06/21 07:23:26;;;;;;;5.07;2.33;;;19.20;99.90;;;;;;6188021;23;20001;-77
2021/06/21 07:25:52;;;;;;;5.10;2.50;;;19.50;99.90;;;;;;6214770;23;20343;-77
2021/06/21 07:28:17;;;;;;;3.75;2.35;;;19.40;99.90;;;;;;6214494;23;20010;-77
2021/06/21 07:30:44;;;;;;;4.68;3.08;;;19.10;99.90;;;;;;6214735;23;20000;-77
2021/06/21 07:33:11;;;;;;;4.72;3.28;;;18.70;99.90;;;;;;6214171;23;19997;-77
2021/06/21 07:35:40;;;;;;;6.13;3.78;;;18.70;99.90;;;;;;6187794;23;20455;-77
2021/06/21 07:38:06;;;;;;;8.60;4.20;;;19.10;99.90;;;;;;6214181;23;20478;-77
2021/06/21 07:40:32;;;;;;;3.97;3.22;;;19.20;99.90;;;;;;6214681;23;20031;-77
2021/06/21 07:42:58;;;;;;;7.45;3.60;;;19.40;99.90;;;;;;6214764;23;20338;-77
2021/06/21 07:45:24;;;;;;;8.70;3.28;;;19.50;99.90;;;;;;6214611;23;20003;-77
2021/06/21 07:47:52;;;;;;;5.45;3.92;;;19.50;99.90;;;;;;6214233;23;20389;-77
2021/06/21 07:50:18;;;;;;;6.00;3.40;;;19.60;99.90;;;;;;6214363;23;20047;-77
2021/06/21 07:52:44;;;;;;;6.65;3.88;;;19.70;99.90;;;;;;6187925;23;20459;-77
2021/06/21 07:55:10;;;;;;;7.82;4.05;;;19.90;99.90;;;;;;6214979;23;20031;-77
2021/06/21 07:57:36;;;;;;;5.63;3.30;;;19.90;99.90;;;;;;6190038;23;20079;-77
2021/06/21 08:00:04;;;;;;;5.50;3.03;;;20.00;99.90;;;;;;6216424;23;20001;-77
2021/06/21 08:02:29;;;;;;;7.75;3.70;;;20.10;99.90;;;;;;6216102;23;19993;-77
2021/06/21 08:04:56;;;;;;;4.95;3.80;;;20.30;99.90;;;;;;6216680;23;20079;-77
2021/06/21 08:07:22;;;;;;;4.57;3.47;;;20.40;99.90;;;;;;6189833;23;20433;-77
2021/06/21 08:09:49;;;;;;;8.32;3.60;;;20.40;99.90;;;;;;6216579;23;20004;-77
2021/06/21 08:12:14;;;;;;;4.90;3.65;;;20.50;99.90;;;;;;6216221;23;20007;-77
2021/06/21 08:14:41;;;;;;;6.32;3.47;;;20.60;99.90;;;;;;6216453;23;20005;-77
2021/06/21 08:17:08;;;;;;;11.00;4.28;;;20.60;99.90;;;;;;6216074;23;20000;-77
2021/06/21 08:19:34;;;;;;;4.90;3.08;;;20.80;99.90;;;;;;6216479;23;20080;-77
2021/06/21 08:22:00;;;;;;;4.57;3.50;;;20.90;99.90;;;;;;6216189;23;20024;-77
2021/06/21 08:24:26;;;;;;;4.80;3.53;;;20.90;99.90;;;;;;6216327;23;19997;-77
2021/06/21 08:26:53;;;;;;;6.22;3.67;;;20.80;99.90;;;;;;6216367;23;20091;-77
2021/06/21 08:29:19;;;;;;;7.93;3.85;;;21.00;99.90;;;;;;6216132;23;19997;-77
2021/06/21 08:31:45;;;;;;;8.82;3.00;;;21.20;99.90;;;;;;6215934;23;20509;-77
2021/06/21 08:34:11;;;;;;;7.00;3.92;;;21.30;99.90;;;;;;6216032;23;20312;-77
2021/06/21 08:36:36;;;;;;;5.47;3.15;;;21.40;99.90;;;;;;6215990;23;20523;-77
2021/06/21 08:39:03;;;;;;;4.10;3.05;;;21.60;99.90;;;;;;6216343;23;20072;-77
2021/06/21 08:41:29;;;;;;;6.72;3.45;;;21.70;99.90;;;;;;6216065;23;19992;-77
2021/06/21 08:43:55;;;;;;;3.47;2.75;;;21.70;99.90;;;;;;6216253;23;19997;-77
2021/06/21 08:46:20;;;;;;;5.85;2.90;;;21.90;99.90;;;;;;6215949;23;19997;-77
2021/06/21 08:48:48;;;;;;;7.10;3.05;;;22.00;99.90;;;;;;6216122;23;20000;-77
2021/06/21 08:51:15;;;;;;;4.60;3.78;;;21.90;99.90;;;;;;6189255;23;20381;-77
2021/06/21 08:53:41;;;;;;;4.90;3.00;;;21.60;99.90;;;;;;6216201;23;20000;-77
2021/06/21 08:56:08;;;;;;;4.63;2.90;;;21.70;99.90;;;;;;6215783;23;20058;-77
2021/06/21 08:58:34;;;;;;;5.75;3.10;;;22.10;99.90;;;;;;6219748;23;20068;-77
2021/06/21 09:00:59;;;;;;;5.18;3.10;;;22.70;99.90;;;;;;6216564;23;20024;-77
2021/06/21 09:03:25;;;;;;;9.05;3.28;;;23.40;99.90;;;;;;6189129;23;20446;-77
2021/06/21 09:05:51;;;;;;;3.67;2.88;;;24.60;99.90;;;;;;6216114;23;20030;-77
2021/06/21 09:08:17;;;;;;;5.93;3.38;;;25.10;99.90;;;;;;6215511;23;20007;-77
2021/06/21 09:10:43;;;;;;;4.63;2.63;;;24.80;99.90;;;;;;6189031;23;20007;-77
2021/06/21 09:13:16;;;;;;;4.45;2.92;;;24.50;99.90;;;;;;6215655;23;20000;-77
2021/06/21 09:15:49;;;;;;;8.80;3.25;;;24.30;99.90;;;;;;6189185;23;20008;-77
2021/06/21 09:18:39;;;;;;;5.97;2.85;;;24.60;99.90;;;;;;6215934;23;20024;-77
2021/06/21 09:21:23;;;;;;;4.30;2.78;;;25.30;99.90;;;;;;6216139;23;20056;-77
2021/06/21 09:23:51;;;;;;;5.15;2.20;;;25.20;99.90;;;;;;6189140;23;20054;-77
2021/06/21 09:26:28;;;;;;;2.70;2.30;;;24.70;99.90;;;;;;6215812;23;20462;-77
2021/06/21 09:28:54;;;;;;;6.25;2.80;;;24.40;99.90;;;;;;6215422;23;20024;-77
2021/06/21 09:31:22;;;;;;;3.95;2.30;;;24.20;99.90;;;;;;6215681;23;19997;-77
2021/06/21 09:33:48;;;;;;;3.63;2.97;;;24.60;99.90;;;;;;6215966;23;20001;-77
2021/06/21 09:36:30;;;;;;;4.07;2.95;;;25.40;99.90;;;;;;6215098;23;20009;-77
2021/06/21 09:39:24;;;;;;;4.35;2.85;;;26.60;99.90;;;;;;6215723;23;20469;-77
2021/06/21 09:42:08;;;;;;;5.80;2.40;;;26.70;99.90;;;;;;6215699;23;20019;-77
2021/06/21 09:44:43;;;;;;;5.05;2.80;;;25.80;99.90;;;;;;6215554;23;20050;-77
2021/06/21 09:47:18;;;;;;;4.22;2.42;;;25.40;99.90;;;;;;6215785;23;20001;-77
2021/06/21 09:50:11;;;;;;;5.28;2.92;;;25.30;99.90;;;;;;6215558;23;20028;-77
2021/06/21 09:52:49;;;;;;;6.18;3.42;;;26.00;99.90;;;;;;6215468;23;20046;-77
2021/06/21 09:55:26;;;;;;;3.97;2.78;;;26.20;99.90;;;;;;6215372;23;20001;-77
2021/06/21 09:58:09;;;;;;;5.43;3.45;;;26.20;99.90;;;;;;6215150;23;20132;-77
2021/06/21 10:00:44;;;;;;;9.77;3.17;;;26.60;99.90;;;;;;6215187;23;20377;-77
2021/06/21 10:03:18;;;;;;;5.57;3.05;;;26.70;99.90;;;;;;6215574;23;20465;-77
2021/06/21 10:06:10;;;;;;;4.28;2.70;;;28.30;99.90;;;;;;6215541;23;20024;-77
2021/06/21 10:08:52;;;;;;;6.28;3.22;;;27.50;99.90;;;;;;6188549;23;20009;-77
2021/06/21 10:11:36;;;;;;;7.00;3.33;;;26.90;99.90;;;;;;6214943;23;20004;-77
2021/06/21 10:14:09;;;;;;;7.05;3.00;;;27.90;99.90;;;;;;6215363;23;20071;-77
2021/06/21 10:16:36;;;;;;;4.15;3.10;;;27.50;99.90;;;;;;6215218;23;20451;-77
2021/06/21 10:19:03;;;;;;;4.85;3.05;;;26.50;99.90;;;;;;6214838;23;19999;-77
2021/06/21 10:21:30;;;;;;;5.60;3.22;;;27.20;99.90;;;;;;6215063;23;19993;-77
2021/06/21 10:23:57;;;;;;;6.03;3.17;;;28.00;99.90;;;;;;6215224;23;20462;-77
2021/06/21 10:26:23;;;;;;;5.43;2.97;;;28.60;99.90;;;;;;6214751;23;19992;-77
2021/06/21 10:28:50;;;;;;;5.25;3.10;;;28.10;99.90;;;;;;6215175;23;20046;-77
2021/06/21 10:31:21;;;;;;;6.45;2.90;;;29.90;99.90;;;;;;6215226;23;19992;-77
2021/06/21 10:33:48;;;;;;;7.22;3.53;;;31.80;99.90;;;;;;6215194;23;20078;-77
2021/06/21 10:36:14;;;;;;;4.18;2.47;;;36.50;99.90;;;;;;6214718;23;20346;-77
2021/06/21 10:38:40;;;;;;;4.80;2.55;;;36.40;99.90;;;;;;6214912;23;20024;-77
2021/06/21 10:41:12;;;;;;;8.65;2.53;;;34.70;99.90;;;;;;6214848;23;20319;-77
2021/06/21 10:43:40;;;;;;;7.88;3.20;;;34.50;99.90;;;;;;6215059;23;20003;-77
2021/06/21 10:46:18;;;;;;;12.38;4.03;;;31.80;99.90;;;;;;6214873;23;20023;-77
2021/06/21 10:49:03;;;;;;;8.00;2.90;;;29.40;99.90;;;;;;6214840;23;20003;-77
2021/06/21 10:51:37;;;;;;;8.25;3.42;;;27.60;99.90;;;;;;6215060;23;20000;-77
2021/06/21 10:54:06;;;;;;;5.47;3.35;;;26.90;99.90;;;;;;6214735;23;20000;-77
2021/06/21 10:56:44;;;;;;;13.73;4.78;;;27.20;99.90;;;;;;6214641;23;20088;-77
2021/06/21 10:59:20;;;;;;;7.45;3.63;;;28.20;99.90;;;;;;6214857;23;20050;-77
2021/06/21 11:01:51;;;;;;;5.35;3.97;;;32.30;99.90;;;;;;6215015;23;19993;-77
2021/06/21 11:04:43;;;;;;;6.30;3.40;;;30.50;99.90;;;;;;6215254;23;20023;-77
2021/06/21 11:07:10;;;;;;;7.55;3.33;;;28.90;99.90;;;;;;6210640;23;20001;-77
2021/06/21 11:09:47;;;;;;;8.27;4.45;;;29.20;99.90;;;;;;6212681;23;20020;-77
2021/06/21 11:12:22;;;;;;;7.10;3.45;;;31.70;99.90;;;;;;6214796;23;20008;-77
2021/06/21 11:15:03;;;;;;;10.20;3.50;;;36.00;99.90;;;;;;6186975;23;20008;-77
2021/06/21 11:20:41;;;;;;;7.40;3.25;;;30.10;99.90;;;;;;5103130;27;20377;-81
2021/06/21 11:23:09;;;;;;;11.45;4.05;;;29.00;99.90;;;;;;5088133;28;20119;-81
2021/06/21 11:25:47;;;;;;;10.10;3.65;;;28.30;99.90;;;;;;5088225;28;20016;-81
2021/06/21 11:28:35;;;;;;;5.43;3.28;;;32.40;99.90;;;;;;5089374;28;20024;-81
2021/06/21 11:31:23;;;;;;;5.85;3.35;;;33.10;99.90;;;;;;5084791;28;20009;-81
2021/06/21 11:33:55;;;;;;;8.85;3.85;;;32.40;99.90;;;;;;5088212;28;20051;-82
2021/06/21 11:36:38;;;;;;;7.70;3.60;;;37.80;99.90;;;;;;5089157;28;20024;-83
2021/06/21 11:39:28;;;;;;;24.42;4.53;;;36.20;97.40;;;;;;5080282;28;20025;-83
2021/06/21 11:42:02;;;;;;;8.65;4.03;;;34.10;99.90;;;;;;5069373;28;20024;-83
2021/06/21 11:44:36;;;;;;;11.30;3.97;;;38.30;98.80;;;;;;5069315;28;20108;-83
2021/06/21 11:47:22;;;;;;;11.90;4.03;;;40.80;94.40;;;;;;5069568;28;20033;-83
2021/06/21 11:50:12;;;;;;;13.70;4.35;;;36.80;92.20;;;;;;5069481;28;20040;-83
2021/06/21 11:52:38;;;;;;;5.30;3.83;;;35.60;96.00;;;;;;5068955;28;20021;-81
2021/06/21 11:55:18;;;;;;;6.85;3.72;;;38.60;94.70;;;;;;5069125;28;20040;-82
2021/06/21 11:57:45;;;;;;;;;;;37.50;91.90;;;;;;5069507;28;20090;-82
2021/06/21 12:00:11;;;;;;;6.53;3.10;;;34.00;96.80;;;;;;5069077;28;20461;-80
2021/06/21 12:02:37;;;;;;;10.77;3.83;;;32.00;98.20;;;;;;5068958;28;20032;-81
2021/06/21 12:05:09;;;;;;;6.70;3.40;;;34.50;98.40;;;;;;5087157;28;20054;-81
2021/06/21 12:07:37;;;;;;;6.15;3.60;;;33.40;98.00;;;;;;5088755;28;20040;-80
2021/06/21 12:10:10;;;;;;;7.13;3.47;;;31.30;99.50;;;;;;5089185;28;20128;-80
2021/06/21 12:12:37;;;;;;;8.43;3.88;;;29.50;99.90;;;;;;5088974;28;20495;-82
2021/06/21 12:15:05;;;;;;;13.32;4.10;;;28.40;99.90;;;;;;5088999;28;20059;-83
2021/06/21 12:17:31;;;;;;;10.55;3.60;;;28.20;99.90;;;;;;5087771;28;20549;-83
2021/06/21 12:20:05;;;;;;;6.22;3.38;;;28.60;99.90;;;;;;5087400;28;20413;-83
2021/06/21 12:22:31;;;;;;;8.57;4.13;;;28.90;99.90;;;;;;5088921;28;20059;-83
2021/06/21 12:24:58;;;;;;;9.52;3.95;;;29.50;99.90;;;;;;5088717;28;20016;-82
2021/06/21 12:27:24;;;;;;;7.45;3.22;;;32.80;99.90;;;;;;5088817;28;20030;-82
2021/06/21 12:29:52;;;;;;;8.40;3.28;;;37.60;96.50;;;;;;5086820;28;20099;-84
2021/06/21 12:32:18;;;;;;;9.77;3.60;;;37.90;92.50;;;;;;5075230;28;20085;-84
2021/06/21 12:34:51;;;;;;;6.82;4.18;;;35.80;95.70;;;;;;5074919;28;20056;-84
2021/06/21 12:37:29;;;;;;;4.18;3.75;;;38.80;94.90;;;;;;5074818;28;20166;-85
2021/06/21 12:40:11;;;;;;;9.77;3.40;;;36.90;91.40;;;;;;5074929;28;20065;-84
2021/06/21 12:42:37;;;;;;;8.30;3.63;;;34.10;97.20;;;;;;5075031;28;20029;-84
2021/06/21 12:45:19;;;;;;;7.38;3.65;;;35.60;94.20;;;;;;5074924;28;20032;-84
2021/06/21 12:47:47;;;;;;;8.18;3.15;;;35.10;95.30;;;;;;5074868;28;20024;-84
2021/06/21 12:50:16;;;;;;;5.67;2.93;;;32.50;94.30;;;;;;5074986;28;20024;-81
2021/06/21 12:52:48;;;;;;;5.13;3.37;;;31.10;97.40;;;;;;5074446;28;20036;-81
2021/06/21 12:55:35;;;;;;;7.72;3.20;;;30.10;99.90;;;;;;5074795;28;20841;-82
2021/06/21 12:58:06;;;;;;;7.40;3.13;;;30.90;99.90;;;;;;5074305;28;20109;-82
2021/06/21 13:00:46;;;;;;;7.90;3.33;;;29.90;99.90;;;;;;5074622;28;20104;-82
2021/06/21 13:03:21;;;;;;;9.27;3.25;;;29.50;99.90;;;;;;5074631;28;20393;-82